Terminal Aerodrome Forecast
Issued by NWS

Home | Current Version | Previous Version | Text Only | Print | Product List | Glossary On
Versions: 1 2 3 4 5 6 7 8 9 10 11 12 13 14 15 16 17 18 19 20 21 22 23 24 25 26 27 28 29
000
FTUS41 KBOX 252327
TAFBED
TAF
KBED 252327Z 2600/2624 24006KT P6SM BKN250
     FM260800 30005KT P6SM OVC200
     FM261200 VRB03KT 5SM -RA OVC070
     FM261400 36004KT 2SM -RASN OVC040
     FM261500 01005KT 2SM -SNRA OVC015
     FM261600 01006KT 2SM -SN OVC015
     FM261800 02008KT 1/4SM +SN OVC008
     FM262200 02011G26KT 1/4SM +SN OVC008=

USA.gov is the U.S. government's official web portal to all federal, state and local government web resources and services.